createdAt,value
2019-01-31T00:01:35.686Z,33.87
2019-01-31T00:04:31.527Z,34.17
2019-01-31T00:07:31.848Z,34.47
2019-01-31T00:10:26.858Z,35.10
2019-01-31T00:13:17.582Z,31.60
2019-01-31T00:16:12.389Z,32.20
2019-01-31T00:18:51.142Z,32.70
2019-01-31T00:22:02.664Z,33.53
2019-01-31T00:25:05.128Z,34.67
2019-01-31T00:28:02.946Z,34.23
2019-01-31T00:31:01.846Z,35.60
2019-01-31T00:34:06.117Z,33.50
2019-01-31T00:37:03.289Z,34.80
2019-01-31T00:40:02.906Z,34.63
2019-01-31T00:43:32.702Z,33.80
2019-01-31T00:46:35.452Z,31.73
2019-01-31T00:49:23.142Z,32.97
2019-01-31T00:52:31.950Z,32.87
2019-01-31T00:55:31.012Z,33.93
2019-01-31T00:58:18.845Z,31.70
2019-01-31T01:01:19.339Z,30.30
2019-01-31T01:04:31.405Z,31.47
2019-01-31T01:07:41.510Z,31.90
2019-01-31T01:10:32.479Z,32.07
2019-01-31T01:13:35.984Z,32.50
2019-01-31T01:16:51.515Z,31.90
2019-01-31T01:19:48.924Z,33.07
2019-01-31T01:22:44.517Z,32.60
2019-01-31T01:25:52.011Z,33.27
2019-01-31T01:28:53.255Z,33.27
2019-01-31T01:32:06.532Z,32.77
2019-01-31T01:35:06.237Z,32.63
2019-01-31T01:38:12.010Z,31.53
2019-01-31T01:41:18.745Z,31.37
2019-01-31T01:44:17.924Z,30.60
2019-01-31T01:47:12.588Z,31.10
2019-01-31T01:50:26.808Z,35.37
2019-01-31T01:53:35.914Z,32.47
2019-01-31T01:56:29.303Z,33.07
2019-01-31T01:59:13.979Z,30.60
2019-01-31T02:02:22.944Z,33.43
2019-01-31T02:05:34.288Z,34.30
2019-01-31T02:08:32.046Z,34.90
2019-01-31T02:11:23.367Z,32.97
2019-01-31T02:14:22.127Z,32.47
2019-01-31T02:17:20.314Z,34.10
2019-01-31T02:20:46.442Z,34.10
2019-01-31T02:24:01.621Z,32.73
2019-01-31T02:27:04.771Z,35.67
2019-01-31T02:30:18.193Z,34.40
2019-01-31T02:33:14.437Z,34.00
2019-01-31T02:36:24.139Z,34.20
2019-01-31T02:39:25.930Z,35.97
2019-01-31T02:42:34.696Z,33.10
2019-01-31T02:45:56.746Z,35.40
2019-01-31T02:49:17.505Z,34.40
2019-01-31T02:52:06.485Z,33.37
2019-01-31T02:55:18.823Z,34.80
2019-01-31T02:58:24.666Z,35.87
2019-01-31T03:01:43.604Z,34.80
2019-01-31T03:04:27.817Z,32.73
2019-01-31T03:07:51.086Z,34.20
2019-01-31T03:10:45.468Z,34.47
2019-01-31T03:13:31.250Z,34.43
2019-01-31T03:16:39.906Z,35.83
2019-01-31T03:19:28.231Z,35.63
2019-01-31T03:22:36.738Z,33.77
2019-01-31T03:25:29.927Z,35.83
2019-01-31T03:28:23.667Z,33.70
2019-01-31T03:31:24.483Z,33.20
2019-01-31T03:34:08.084Z,34.80
2019-01-31T03:37:46.976Z,34.90
2019-01-31T03:40:53.717Z,33.03
2019-01-31T03:44:05.671Z,32.17
2019-01-31T03:47:01.056Z,33.20
2019-01-31T03:50:15.004Z,33.97
2019-01-31T03:53:34.760Z,34.67
2019-01-31T03:56:31.570Z,34.80
2019-01-31T03:59:11.007Z,34.43
2019-01-31T04:02:25.783Z,35.80
2019-01-31T04:05:27.795Z,37.70
2019-01-31T04:07:59.613Z,36.23
2019-01-31T04:10:30.417Z,39.60
2019-01-31T04:13:01.511Z,38.13
2019-01-31T04:15:33.091Z,37.07
2019-01-31T04:18:04.977Z,35.93
2019-01-31T04:20:35.328Z,36.17
2019-01-31T04:23:06.092Z,38.20
2019-01-31T04:25:36.630Z,37.97
2019-01-31T04:28:07.066Z,36.60
2019-01-31T04:30:38.600Z,37.90
2019-01-31T04:33:09.577Z,37.77
2019-01-31T04:35:40.812Z,36.50
2019-01-31T04:38:11.625Z,36.63
2019-01-31T04:40:42.761Z,38.13
2019-01-31T04:43:13.641Z,38.43
2019-01-31T04:45:45.604Z,36.50
2019-01-31T04:48:15.989Z,37.00
2019-01-31T04:50:46.671Z,38.20
2019-01-31T04:53:17.565Z,35.90
2019-01-31T04:55:48.642Z,37.43
2019-01-31T04:58:19.637Z,38.10
2019-01-31T05:00:50.577Z,37.60
2019-01-31T05:03:20.956Z,34.97
2019-01-31T05:05:52.702Z,35.80
2019-01-31T05:08:23.591Z,35.50
2019-01-31T05:10:54.583Z,37.43
2019-01-31T05:13:25.517Z,38.57
2019-01-31T05:15:56.574Z,38.07
2019-01-31T05:18:27.542Z,34.90
2019-01-31T05:20:58.395Z,38.33
2019-01-31T05:23:29.292Z,36.67
2019-01-31T05:25:59.773Z,38.17
2019-01-31T05:28:30.868Z,35.85
2019-01-31T05:31:03.937Z,39.20
2019-01-31T05:33:35.135Z,38.00
2019-01-31T05:36:05.826Z,36.58
2019-01-31T05:38:36.935Z,37.83
2019-01-31T05:41:07.879Z,37.20
2019-01-31T05:43:38.788Z,36.30
2019-01-31T05:46:10.029Z,38.20
2019-01-31T05:48:41.090Z,36.00
2019-01-31T05:51:11.894Z,38.00
2019-01-31T05:53:42.893Z,35.40
2019-01-31T05:56:13.913Z,37.23
2019-01-31T05:58:44.385Z,36.17
2019-01-31T06:01:15.906Z,35.50
2019-01-31T06:03:46.819Z,37.73
2019-01-31T06:06:17.880Z,38.48
2019-01-31T06:08:48.735Z,35.73
2019-01-31T06:11:19.770Z,38.78
2019-01-31T06:13:50.672Z,36.65
2019-01-31T06:16:21.151Z,38.13
2019-01-31T06:18:52.415Z,36.85
2019-01-31T06:21:23.346Z,38.20
2019-01-31T06:23:54.364Z,37.60
2019-01-31T06:26:25.258Z,38.90
2019-01-31T06:28:56.313Z,37.35
2019-01-31T06:31:26.843Z,39.60
2019-01-31T06:33:57.851Z,39.63
2019-01-31T06:36:28.610Z,38.30
2019-01-31T06:38:59.620Z,38.45
2019-01-31T06:41:30.248Z,36.05
2019-01-31T06:44:01.193Z,39.40
2019-01-31T06:46:31.591Z,38.15
2019-01-31T06:49:03.261Z,40.30
2019-01-31T06:51:34.485Z,41.73
2019-01-31T06:54:07.602Z,41.05
2019-01-31T06:56:39.175Z,41.05
2019-01-31T06:59:10.262Z,43.95
2019-01-31T07:01:41.314Z,42.60
2019-01-31T07:04:12.244Z,41.35
2019-01-31T07:06:43.297Z,46.20
2019-01-31T07:09:14.222Z,44.30
2019-01-31T07:11:47.236Z,43.38
2019-01-31T07:14:18.386Z,44.95
2019-01-31T07:16:49.321Z,46.13
2019-01-31T07:19:20.267Z,44.45
2019-01-31T07:21:53.273Z,44.40
2019-01-31T07:24:24.373Z,44.77
2019-01-31T07:26:56.397Z,45.80
2019-01-31T07:29:28.313Z,44.15
2019-01-31T07:32:03.620Z,44.97
2019-01-31T07:34:33.470Z,47.78
2019-01-31T07:37:06.303Z,46.48
2019-01-31T07:39:37.220Z,46.80
2019-01-31T07:42:08.073Z,47.93
2019-01-31T07:44:38.515Z,48.05
2019-01-31T07:47:09.400Z,45.40
2019-01-31T07:49:40.531Z,47.25
2019-01-31T07:52:11.713Z,43.40
2019-01-31T07:54:42.463Z,43.60
2019-01-31T07:57:13.486Z,44.48
2019-01-31T07:59:44.383Z,41.28
2019-01-31T08:02:15.268Z,40.28
2019-01-31T08:04:46.194Z,40.98
2019-01-31T08:07:16.644Z,41.85
2019-01-31T08:09:47.564Z,42.13
2019-01-31T08:12:18.831Z,42.00
2019-01-31T08:14:49.613Z,40.83
2019-01-31T08:17:20.569Z,41.87
2019-01-31T08:19:51.718Z,40.37
2019-01-31T08:22:22.084Z,39.00
2019-01-31T08:24:53.673Z,40.27
2019-01-31T08:27:24.517Z,38.70
2019-01-31T08:29:55.359Z,37.27
2019-01-31T08:32:26.250Z,38.03
2019-01-31T08:34:56.730Z,36.93
2019-01-31T08:37:27.667Z,37.10
2019-01-31T08:39:58.900Z,34.33
2019-01-31T08:42:29.903Z,34.70
2019-01-31T08:45:00.730Z,33.73
2019-01-31T08:47:31.788Z,34.80
2019-01-31T08:50:02.678Z,34.97
2019-01-31T08:52:33.653Z,33.90
2019-01-31T08:55:05.061Z,33.20
2019-01-31T08:57:35.923Z,32.27
2019-01-31T09:00:08.799Z,34.50
2019-01-31T09:02:40.855Z,33.43
2019-01-31T09:05:11.801Z,34.13
2019-01-31T09:07:42.949Z,37.27
2019-01-31T09:10:16.451Z,34.33
2019-01-31T09:12:47.907Z,33.20
2019-01-31T09:15:22.766Z,36.50
2019-01-31T09:17:54.988Z,35.77
2019-01-31T09:20:37.293Z,34.67
2019-01-31T09:23:26.546Z,34.77
2019-01-31T09:26:33.931Z,35.97
2019-01-31T09:29:54.200Z,34.37
2019-01-31T09:33:09.003Z,37.90
2019-01-31T09:36:05.480Z,37.90
2019-01-31T09:39:20.368Z,34.17
2019-01-31T09:42:26.590Z,35.80
2019-01-31T09:45:21.620Z,36.77
2019-01-31T09:48:08.103Z,35.93
2019-01-31T09:51:19.906Z,33.10
2019-01-31T09:54:11.009Z,33.20
2019-01-31T09:57:23.929Z,34.37
2019-01-31T10:00:27.981Z,33.60
2019-01-31T10:03:51.262Z,32.80
2019-01-31T10:06:43.367Z,32.60
2019-01-31T10:09:55.320Z,31.27
2019-01-31T10:13:22.686Z,31.50
2019-01-31T10:16:23.029Z,29.53
2019-01-31T10:19:47.868Z,32.77
2019-01-31T10:23:09.963Z,32.97
2019-01-31T10:26:05.040Z,31.70
2019-01-31T10:29:13.001Z,34.23
2019-01-31T10:32:13.912Z,31.93
2019-01-31T10:35:29.828Z,34.30
2019-01-31T10:38:25.033Z,31.70
2019-01-31T10:41:39.248Z,35.17
2019-01-31T10:45:05.212Z,35.07
2019-01-31T10:48:27.521Z,37.93
2019-01-31T10:51:34.772Z,37.57
2019-01-31T10:54:16.879Z,38.73
2019-01-31T10:57:30.068Z,40.90
2019-01-31T11:00:30.251Z,40.40
2019-01-31T11:03:32.152Z,44.53
2019-01-31T11:06:41.391Z,41.97
2019-01-31T11:10:22.183Z,44.83
2019-01-31T11:13:33.547Z,44.07
2019-01-31T11:16:28.670Z,43.70
2019-01-31T11:19:52.212Z,43.73
2019-01-31T11:23:01.263Z,43.20
2019-01-31T11:26:13.878Z,43.80
2019-01-31T11:29:19.035Z,45.10
2019-01-31T11:32:30.307Z,43.70
2019-01-31T11:35:35.229Z,42.53
2019-01-31T11:38:44.112Z,42.70
2019-01-31T11:42:10.756Z,44.70
2019-01-31T11:45:25.005Z,42.30
2019-01-31T11:48:34.913Z,41.37
2019-01-31T11:51:38.902Z,39.97
2019-01-31T11:54:55.414Z,36.93
2019-01-31T11:57:48.291Z,39.10
2019-01-31T12:00:23.820Z,35.77
2019-01-31T12:02:55.845Z,37.03
2019-01-31T12:05:27.651Z,34.80
2019-01-31T12:08:00.466Z,38.33
2019-01-31T12:10:31.402Z,37.17
2019-01-31T12:13:05.085Z,38.90
2019-01-31T12:15:36.172Z,36.43
2019-01-31T12:18:07.198Z,37.13
2019-01-31T12:20:37.738Z,36.67
2019-01-31T12:23:08.586Z,37.07
2019-01-31T12:25:39.722Z,37.20
2019-01-31T12:28:10.672Z,37.37
2019-01-31T12:30:41.784Z,36.50
2019-01-31T12:33:12.737Z,39.97
2019-01-31T12:35:43.591Z,38.10
2019-01-31T12:38:14.650Z,35.80
2019-01-31T12:40:45.788Z,38.03
2019-01-31T12:43:18.319Z,36.07
2019-01-31T12:45:50.882Z,35.93
2019-01-31T12:48:21.372Z,38.77
2019-01-31T12:50:52.805Z,38.37
2019-01-31T12:53:24.789Z,38.30
2019-01-31T12:55:57.773Z,36.90
2019-01-31T12:58:33.612Z,37.27
2019-01-31T13:01:03.489Z,37.50
2019-01-31T13:03:33.895Z,36.87
2019-01-31T13:06:04.976Z,39.70
2019-01-31T13:08:35.707Z,39.43
2019-01-31T13:11:07.385Z,36.80
2019-01-31T13:13:45.975Z,35.57
2019-01-31T13:16:10.995Z,37.97
2019-01-31T13:18:42.984Z,36.03
2019-01-31T13:21:14.147Z,36.33
2019-01-31T13:23:45.194Z,35.10
2019-01-31T13:26:15.967Z,37.70
2019-01-31T13:28:46.382Z,36.53
2019-01-31T13:31:18.087Z,37.30
2019-01-31T13:33:49.010Z,35.30
2019-01-31T13:36:19.996Z,35.70
2019-01-31T13:38:52.192Z,34.87
2019-01-31T13:41:24.362Z,35.10
2019-01-31T13:43:57.604Z,36.57
2019-01-31T13:46:29.050Z,36.27
2019-01-31T13:49:00.080Z,35.20
2019-01-31T13:51:31.028Z,33.50
2019-01-31T13:54:02.089Z,35.53
2019-01-31T13:56:44.906Z,34.57
2019-01-31T13:59:06.983Z,34.87
2019-01-31T14:01:38.149Z,35.20
2019-01-31T14:04:09.120Z,33.63
2019-01-31T14:06:41.174Z,35.07
2019-01-31T14:09:14.142Z,33.73
2019-01-31T14:11:45.089Z,34.90
2019-01-31T14:14:16.071Z,37.20
2019-01-31T14:16:48.120Z,34.70
2019-01-31T14:19:21.183Z,32.83
2019-01-31T14:21:52.175Z,32.43
2019-01-31T14:24:22.600Z,33.93
2019-01-31T14:26:54.104Z,32.27
2019-01-31T14:29:25.410Z,34.93
2019-01-31T14:31:58.197Z,35.93
2019-01-31T14:34:29.831Z,35.87
2019-01-31T14:37:00.224Z,35.67
2019-01-31T14:39:32.139Z,35.20
2019-01-31T14:42:02.652Z,35.70
2019-01-31T14:44:33.748Z,33.63
2019-01-31T14:47:04.163Z,34.10
2019-01-31T14:49:35.759Z,33.83
2019-01-31T14:52:06.516Z,32.73
2019-01-31T14:54:37.296Z,34.17
2019-01-31T14:57:08.505Z,35.80
2019-01-31T14:59:39.558Z,35.63
2019-01-31T15:02:10.482Z,36.67
2019-01-31T15:04:41.700Z,35.67
2019-01-31T15:07:12.489Z,35.90
2019-01-31T15:09:43.405Z,37.97
2019-01-31T15:12:14.097Z,37.93
2019-01-31T15:14:44.515Z,36.17
2019-01-31T15:17:15.490Z,37.73
2019-01-31T15:19:46.631Z,38.13
2019-01-31T15:22:17.819Z,35.90
2019-01-31T15:24:48.638Z,35.80
2019-01-31T15:27:19.439Z,35.80
2019-01-31T15:29:50.424Z,34.57
2019-01-31T15:32:21.427Z,35.43
2019-01-31T15:34:52.186Z,34.80
2019-01-31T15:37:22.650Z,33.63
2019-01-31T15:39:53.566Z,36.00
2019-01-31T15:42:25.185Z,36.70
2019-01-31T15:44:56.519Z,34.07
2019-01-31T15:47:27.077Z,34.33
2019-01-31T15:49:57.602Z,34.20
2019-01-31T15:52:28.586Z,38.73
2019-01-31T15:54:59.585Z,35.27
2019-01-31T15:57:30.738Z,34.80
2019-01-31T16:00:01.677Z,35.17
2019-01-31T16:02:32.722Z,35.30
2019-01-31T16:05:03.643Z,37.03
2019-01-31T16:07:34.600Z,35.40
2019-01-31T16:10:05.738Z,35.03
2019-01-31T16:12:36.537Z,36.70
2019-01-31T16:15:08.232Z,35.67
2019-01-31T16:17:38.627Z,35.20
2019-01-31T16:20:10.607Z,36.40
2019-01-31T16:22:43.087Z,38.43
2019-01-31T16:25:13.703Z,36.67
2019-01-31T16:27:44.618Z,37.27
2019-01-31T16:30:16.085Z,37.20
2019-01-31T16:32:46.833Z,36.93
2019-01-31T16:35:17.833Z,40.00
2019-01-31T16:37:49.024Z,40.27
2019-01-31T16:40:19.936Z,37.77
2019-01-31T16:42:50.873Z,37.30
2019-01-31T16:45:21.728Z,39.77
2019-01-31T16:47:54.786Z,38.83
2019-01-31T16:50:27.770Z,37.87
2019-01-31T16:52:59.824Z,39.80
2019-01-31T16:55:30.917Z,41.03
2019-01-31T16:58:01.927Z,41.13
2019-01-31T17:00:33.999Z,38.40
2019-01-31T17:03:05.259Z,38.40
2019-01-31T17:05:38.011Z,39.60
2019-01-31T17:08:09.057Z,41.73
2019-01-31T17:10:39.834Z,39.60
2019-01-31T17:13:10.959Z,38.50
2019-01-31T17:15:44.017Z,36.70
2019-01-31T17:18:14.961Z,39.27
2019-01-31T17:20:46.817Z,40.17
2019-01-31T17:23:17.230Z,36.73
2019-01-31T17:25:48.033Z,36.70
2019-01-31T17:28:19.051Z,35.60
2019-01-31T17:30:49.978Z,37.73
2019-01-31T17:33:20.894Z,34.60
2019-01-31T17:35:51.847Z,37.50
2019-01-31T17:38:22.292Z,36.33
2019-01-31T17:40:53.791Z,37.20
2019-01-31T17:43:24.679Z,38.80
2019-01-31T17:45:55.809Z,35.87
2019-01-31T17:48:26.681Z,35.57
2019-01-31T17:50:57.609Z,37.17
2019-01-31T17:53:28.046Z,36.03
2019-01-31T17:55:59.096Z,33.80
2019-01-31T17:58:30.517Z,33.47
2019-01-31T18:01:01.203Z,34.90
2019-01-31T18:03:32.585Z,42.38
2019-01-31T18:06:03.248Z,35.87
2019-01-31T18:08:34.240Z,34.60
2019-01-31T18:11:05.245Z,37.83
2019-01-31T18:13:36.297Z,36.50
2019-01-31T18:16:07.178Z,34.60
2019-01-31T18:18:38.324Z,33.97
2019-01-31T18:21:09.243Z,34.40
2019-01-31T18:23:40.155Z,36.53
2019-01-31T18:26:11.255Z,36.13
2019-01-31T18:28:42.196Z,37.07
2019-01-31T18:31:12.935Z,35.83
2019-01-31T18:33:43.472Z,36.00
2019-01-31T18:36:14.922Z,36.00
2019-01-31T18:38:45.398Z,38.50
2019-01-31T18:41:16.451Z,38.70
2019-01-31T18:43:47.203Z,37.70
2019-01-31T18:46:18.415Z,37.20
2019-01-31T18:48:49.908Z,38.20
2019-01-31T18:51:20.455Z,35.37
2019-01-31T18:53:53.743Z,37.20
2019-01-31T18:56:25.560Z,35.40
2019-01-31T18:58:56.737Z,35.03
2019-01-31T19:01:27.541Z,35.07
2019-01-31T19:03:58.572Z,37.30
2019-01-31T19:06:29.411Z,37.00
2019-01-31T19:09:01.009Z,34.87
2019-01-31T19:11:31.571Z,34.13
2019-01-31T19:14:02.455Z,36.60
2019-01-31T19:16:33.595Z,34.77
2019-01-31T19:19:04.740Z,35.50
2019-01-31T19:21:35.560Z,33.40
2019-01-31T19:24:08.657Z,35.63
2019-01-31T19:26:39.554Z,34.37
2019-01-31T19:29:10.954Z,32.90
2019-01-31T19:31:41.550Z,35.10
2019-01-31T19:34:13.693Z,33.30
2019-01-31T19:36:44.984Z,36.07
2019-01-31T19:39:18.909Z,33.07
2019-01-31T19:41:49.566Z,33.20
2019-01-31T19:44:21.702Z,33.20
2019-01-31T19:46:53.546Z,34.80
2019-01-31T19:49:25.752Z,34.10
2019-01-31T19:51:58.775Z,35.27
2019-01-31T19:54:30.157Z,34.70
2019-01-31T19:57:01.040Z,33.30
2019-01-31T19:59:31.760Z,34.57
2019-01-31T20:02:03.290Z,34.57
2019-01-31T20:04:34.826Z,35.77
2019-01-31T20:07:06.425Z,34.57
2019-01-31T20:09:38.723Z,36.07
2019-01-31T20:12:09.879Z,36.77
2019-01-31T20:14:40.743Z,35.40
2019-01-31T20:17:11.751Z,34.90
2019-01-31T20:19:42.885Z,34.97
2019-01-31T20:22:13.774Z,32.40
2019-01-31T20:24:44.916Z,33.80
2019-01-31T20:27:15.801Z,34.40
2019-01-31T20:29:46.989Z,33.90
2019-01-31T20:32:17.858Z,30.50
2019-01-31T20:34:48.823Z,35.55
2019-01-31T20:37:21.762Z,33.80
2019-01-31T20:39:53.997Z,34.77
2019-01-31T20:42:25.878Z,32.93
2019-01-31T20:44:57.882Z,33.53
2019-01-31T20:47:30.797Z,32.77
2019-01-31T20:50:04.067Z,33.65
2019-01-31T20:52:34.924Z,33.42
2019-01-31T20:55:06.986Z,32.10
2019-01-31T20:57:39.247Z,30.08
2019-01-31T21:00:14.857Z,33.45
2019-01-31T21:02:48.101Z,31.17
2019-01-31T21:05:21.226Z,30.95
2019-01-31T21:07:52.015Z,32.53
2019-01-31T21:10:22.407Z,32.98
2019-01-31T21:12:53.646Z,33.83
2019-01-31T21:15:26.131Z,30.10
2019-01-31T21:17:59.166Z,32.45
2019-01-31T21:20:32.091Z,34.53
2019-01-31T21:23:04.565Z,33.25
2019-01-31T21:25:35.151Z,32.90
2019-01-31T21:28:06.689Z,35.50
2019-01-31T21:30:41.554Z,37.15
2019-01-31T21:33:14.133Z,34.37
2019-01-31T21:35:45.128Z,37.50
2019-01-31T21:38:16.232Z,37.45
2019-01-31T21:40:47.207Z,36.98
2019-01-31T21:43:18.194Z,36.90
2019-01-31T21:45:51.236Z,34.95
2019-01-31T21:48:22.292Z,35.45
2019-01-31T21:50:53.097Z,37.40
2019-01-31T21:53:25.179Z,36.83
2019-01-31T21:55:59.904Z,34.92
2019-01-31T21:58:30.670Z,34.40
2019-01-31T22:01:03.279Z,34.73
2019-01-31T22:03:34.149Z,35.63
2019-01-31T22:06:05.418Z,36.28
2019-01-31T22:08:36.612Z,34.75
2019-01-31T22:11:07.382Z,35.30
2019-01-31T22:13:38.210Z,34.30
2019-01-31T22:16:09.723Z,34.50
2019-01-31T22:18:40.385Z,34.10
2019-01-31T22:21:11.325Z,35.23
2019-01-31T22:23:42.257Z,32.85
2019-01-31T22:26:13.432Z,34.20
2019-01-31T22:28:44.451Z,33.78
2019-01-31T22:31:15.402Z,35.52
2019-01-31T22:33:46.395Z,36.10
2019-01-31T22:36:17.855Z,34.92
2019-01-31T22:38:48.451Z,35.65
2019-01-31T22:41:19.434Z,34.58
2019-01-31T22:43:50.452Z,36.75
2019-01-31T22:46:21.508Z,33.45
2019-01-31T22:48:52.567Z,34.18
2019-01-31T22:51:23.042Z,36.90
2019-01-31T22:53:54.437Z,35.10
2019-01-31T22:56:25.422Z,34.88
2019-01-31T22:58:56.359Z,35.52
2019-01-31T23:01:45.202Z,36.35
2019-01-31T23:04:16.629Z,36.85
2019-01-31T23:06:47.573Z,35.17
2019-01-31T23:09:18.515Z,36.93
2019-01-31T23:11:49.690Z,36.25
2019-01-31T23:14:20.718Z,36.10
2019-01-31T23:16:51.566Z,34.63
2019-01-31T23:19:22.325Z,37.80
2019-01-31T23:21:53.527Z,36.77
2019-01-31T23:24:26.673Z,36.42
2019-01-31T23:26:57.557Z,34.40
2019-01-31T23:29:28.597Z,36.42
2019-01-31T23:31:59.544Z,35.73
2019-01-31T23:34:31.406Z,35.35
2019-01-31T23:37:02.721Z,35.20
2019-01-31T23:39:33.556Z,36.90
2019-01-31T23:42:05.846Z,36.55
2019-01-31T23:44:37.694Z,35.80
2019-01-31T23:47:10.191Z,35.68
2019-01-31T23:49:42.776Z,37.35
2019-01-31T23:52:14.612Z,35.78
2019-01-31T23:54:47.584Z,36.55
2019-01-31T23:57:18.633Z,38.80
2019-01-31T23:59:49.767Z,37.38
